createdAt,value
2023-05-17T00:01:46.922Z,7.30
2023-05-17T00:04:13.663Z,7.14
2023-05-17T00:06:41.039Z,7.06
2023-05-17T00:09:07.640Z,7.06
2023-05-17T00:11:34.374Z,7.16
2023-05-17T00:14:01.029Z,7.15
2023-05-17T00:16:27.680Z,7.05
2023-05-17T00:18:54.561Z,6.99
2023-05-17T00:21:21.229Z,7.02
2023-05-17T00:23:47.732Z,6.91
2023-05-17T00:26:14.254Z,6.66
2023-05-17T00:28:40.791Z,6.71
2023-05-17T00:31:07.264Z,6.76
2023-05-17T00:33:33.808Z,6.71
2023-05-17T00:36:06.885Z,6.88
2023-05-17T00:38:36.231Z,6.59
2023-05-17T00:41:02.721Z,6.58
2023-05-17T00:43:29.229Z,6.56
2023-05-17T00:45:55.851Z,6.60
2023-05-17T00:48:26.090Z,6.67
2023-05-17T00:50:55.072Z,6.71
2023-05-17T00:53:22.538Z,6.74
2023-05-17T00:55:49.482Z,6.72
2023-05-17T00:58:19.205Z,6.61
2023-05-17T01:00:46.576Z,6.33
2023-05-17T01:03:13.171Z,6.27
2023-05-17T01:05:40.259Z,6.15
2023-05-17T01:08:17.688Z,6.04
2023-05-17T01:11:14.102Z,6.04
2023-05-17T01:13:57.485Z,6.01
2023-05-17T01:16:57.188Z,5.94
2023-05-17T01:20:00.925Z,5.95
2023-05-17T01:22:46.918Z,6.04
2023-05-17T01:25:29.096Z,5.91
2023-05-17T01:28:00.468Z,5.88
2023-05-17T01:30:31.431Z,5.81
2023-05-17T01:32:59.413Z,5.87
2023-05-17T01:35:27.020Z,5.99
2023-05-17T01:37:54.240Z,6.11
2023-05-17T01:40:22.749Z,6.11
2023-05-17T01:43:11.919Z,6.14
2023-05-17T01:45:49.809Z,6.23
2023-05-17T01:48:35.426Z,6.34
2023-05-17T01:51:03.898Z,6.37
2023-05-17T01:53:38.767Z,6.38
2023-05-17T01:56:14.939Z,6.32
2023-05-17T01:58:48.421Z,6.27
2023-05-17T02:01:25.964Z,6.23
2023-05-17T02:03:52.509Z,6.23
2023-05-17T02:06:19.031Z,6.38
2023-05-17T02:08:45.670Z,6.50
2023-05-17T02:11:17.446Z,6.55
2023-05-17T02:13:43.987Z,6.58
2023-05-17T02:16:11.000Z,6.66
2023-05-17T02:18:38.112Z,6.76
2023-05-17T02:21:05.293Z,6.82
2023-05-17T02:23:31.837Z,6.87
2023-05-17T02:26:00.648Z,6.90
2023-05-17T02:28:35.969Z,6.95
2023-05-17T02:31:02.569Z,6.99
2023-05-17T02:33:29.530Z,7.04
2023-05-17T02:35:56.146Z,7.02
2023-05-17T02:38:22.620Z,7.05
2023-05-17T02:40:49.098Z,7.10
2023-05-17T02:43:15.589Z,7.11
2023-05-17T02:45:44.835Z,7.14
2023-05-17T02:48:11.394Z,7.18
2023-05-17T02:50:51.433Z,7.13
2023-05-17T02:53:36.732Z,7.18
2023-05-17T02:56:03.984Z,7.19
2023-05-17T02:58:30.673Z,7.24
2023-05-17T03:00:57.214Z,7.27
2023-05-17T03:03:23.860Z,7.29
2023-05-17T03:05:50.492Z,7.32
2023-05-17T03:08:17.006Z,7.22
2023-05-17T03:10:43.598Z,7.29
2023-05-17T03:13:10.229Z,7.34
2023-05-17T03:15:36.889Z,7.28
2023-05-17T03:18:11.076Z,7.41
2023-05-17T03:20:41.775Z,7.29
2023-05-17T03:23:15.055Z,7.03
2023-05-17T03:25:41.569Z,7.01
2023-05-17T03:28:08.080Z,7.02
2023-05-17T03:30:37.395Z,6.99
2023-05-17T03:33:04.154Z,6.86
2023-05-17T03:35:31.045Z,6.86
2023-05-17T03:37:57.743Z,6.89
2023-05-17T03:40:24.272Z,6.86
2023-05-17T03:42:51.735Z,6.66
2023-05-17T03:45:19.306Z,6.47
2023-05-17T03:47:46.005Z,6.51
2023-05-17T03:50:12.621Z,6.54
2023-05-17T03:52:41.840Z,6.73
2023-05-17T03:55:09.372Z,6.85
2023-05-17T03:57:35.924Z,6.97
2023-05-17T04:00:03.565Z,7.04
2023-05-17T04:02:30.066Z,7.18
2023-05-17T04:04:56.711Z,7.28
2023-05-17T04:07:23.268Z,7.37
2023-05-17T04:09:49.772Z,7.32
2023-05-17T04:12:16.350Z,7.23
2023-05-17T04:14:43.137Z,7.30
2023-05-17T04:17:09.622Z,7.37
2023-05-17T04:19:36.180Z,7.45
2023-05-17T04:22:02.788Z,7.40
2023-05-17T04:24:29.295Z,7.13
2023-05-17T04:26:55.834Z,7.20
2023-05-17T04:29:22.431Z,7.27
2023-05-17T04:31:49.587Z,7.39
2023-05-17T04:34:16.242Z,7.50
2023-05-17T04:36:43.043Z,7.53
2023-05-17T04:39:09.600Z,7.53
2023-05-17T04:41:36.143Z,7.58
2023-05-17T04:44:02.829Z,7.63
2023-05-17T04:46:29.573Z,7.73
2023-05-17T04:48:56.337Z,7.82
2023-05-17T04:51:23.000Z,7.89
2023-05-17T04:53:49.646Z,7.95
2023-05-17T04:56:16.458Z,7.90
2023-05-17T04:58:43.046Z,7.65
2023-05-17T05:01:09.559Z,7.66
2023-05-17T05:03:36.704Z,7.70
2023-05-17T05:06:04.242Z,7.74
2023-05-17T05:08:33.248Z,7.79
2023-05-17T05:10:59.761Z,7.92
2023-05-17T05:13:26.350Z,8.07
2023-05-17T05:15:52.998Z,7.97
2023-05-17T05:18:19.663Z,8.16
2023-05-17T05:20:48.893Z,8.28
2023-05-17T05:23:15.656Z,8.24
2023-05-17T05:25:44.018Z,8.21
2023-05-17T05:28:11.149Z,8.27
2023-05-17T05:30:37.709Z,8.37
2023-05-17T05:33:04.820Z,8.35
2023-05-17T05:35:31.566Z,8.45
2023-05-17T05:37:59.231Z,8.66
2023-05-17T05:40:25.984Z,8.87
2023-05-17T05:42:53.711Z,8.76
2023-05-17T05:45:21.624Z,8.76
2023-05-17T05:47:48.597Z,8.87
2023-05-17T05:50:15.511Z,8.97
2023-05-17T05:52:42.072Z,9.03
2023-05-17T05:55:09.162Z,9.17
2023-05-17T05:57:35.908Z,9.31
2023-05-17T06:00:04.824Z,9.25
2023-05-17T06:02:31.620Z,9.33
2023-05-17T06:04:59.427Z,9.42
2023-05-17T06:07:26.040Z,9.50
2023-05-17T06:09:52.615Z,9.66
2023-05-17T06:12:20.716Z,9.73
2023-05-17T06:14:47.456Z,9.70
2023-05-17T06:17:13.958Z,9.67
2023-05-17T06:19:40.724Z,9.67
2023-05-17T06:22:07.301Z,9.78
2023-05-17T06:24:33.930Z,9.55
2023-05-17T06:27:00.429Z,9.63
2023-05-17T06:29:27.022Z,9.67
2023-05-17T06:31:56.281Z,9.83
2023-05-17T06:34:22.914Z,9.98
2023-05-17T06:36:49.464Z,10.24
2023-05-17T06:39:16.013Z,10.35
2023-05-17T06:41:42.792Z,10.54
2023-05-17T06:44:09.438Z,10.78
2023-05-17T06:46:35.990Z,11.01
2023-05-17T06:49:02.744Z,10.81
2023-05-17T06:51:29.419Z,10.82
2023-05-17T06:53:56.013Z,11.03
2023-05-17T06:56:22.815Z,11.04
2023-05-17T06:58:49.344Z,11.02
2023-05-17T07:01:16.867Z,11.01
2023-05-17T07:03:43.441Z,11.19
2023-05-17T07:06:10.089Z,11.26
2023-05-17T07:08:36.609Z,11.42
2023-05-17T07:11:03.672Z,11.05
2023-05-17T07:13:32.068Z,11.18
2023-05-17T07:15:58.621Z,11.37
2023-05-17T07:18:25.253Z,11.45
2023-05-17T07:20:51.791Z,11.78
2023-05-17T07:23:18.479Z,12.20
2023-05-17T07:25:46.280Z,11.61
2023-05-17T07:28:12.818Z,11.91
2023-05-17T07:30:39.521Z,11.90
2023-05-17T07:33:06.088Z,11.77
2023-05-17T07:35:32.840Z,11.62
2023-05-17T07:37:59.562Z,11.77
2023-05-17T07:40:26.228Z,12.10
2023-05-17T07:42:53.110Z,11.99
2023-05-17T07:45:19.733Z,12.04
2023-05-17T07:47:46.364Z,11.83
2023-05-17T07:50:13.027Z,11.76
2023-05-17T07:52:39.724Z,12.38
2023-05-17T07:55:07.137Z,12.51
2023-05-17T07:57:33.719Z,12.31
2023-05-17T08:00:00.561Z,12.54
2023-05-17T08:02:28.613Z,13.05
2023-05-17T08:04:55.390Z,12.98
2023-05-17T08:07:21.921Z,12.70
2023-05-17T08:09:48.437Z,12.60
2023-05-17T08:12:14.991Z,12.44
2023-05-17T08:14:41.568Z,12.66
2023-05-17T08:17:08.203Z,12.72
2023-05-17T08:19:34.978Z,12.63
2023-05-17T08:22:01.634Z,12.67
2023-05-17T08:24:28.215Z,12.74
2023-05-17T08:26:54.701Z,12.67
2023-05-17T08:29:21.309Z,12.78
2023-05-17T08:31:47.794Z,13.02
2023-05-17T08:34:14.554Z,13.25
2023-05-17T08:36:41.270Z,13.63
2023-05-17T08:39:08.610Z,14.01
2023-05-17T08:41:38.671Z,14.04
2023-05-17T08:44:06.334Z,14.24
2023-05-17T08:46:36.716Z,14.07
2023-05-17T08:49:06.743Z,13.75
2023-05-17T08:51:33.733Z,13.14
2023-05-17T08:54:00.662Z,12.97
2023-05-17T08:56:31.020Z,13.04
2023-05-17T08:58:58.935Z,13.27
2023-05-17T09:01:27.932Z,13.33
2023-05-17T09:03:55.109Z,13.12
2023-05-17T09:06:23.486Z,13.25
2023-05-17T09:08:54.821Z,13.09
2023-05-17T09:11:33.003Z,13.25
2023-05-17T09:14:09.107Z,13.29
2023-05-17T09:16:37.794Z,13.55
2023-05-17T09:19:07.498Z,13.57
2023-05-17T09:21:34.378Z,13.91
2023-05-17T09:26:44.838Z,13.89
2023-05-17T09:29:16.267Z,14.17
2023-05-17T09:31:43.979Z,14.07
2023-05-17T09:34:11.755Z,14.16
2023-05-17T09:36:43.566Z,13.90
2023-05-17T09:39:13.013Z,14.71
2023-05-17T09:41:48.652Z,14.36
2023-05-17T09:44:16.382Z,14.37
2023-05-17T09:46:47.158Z,14.34
2023-05-17T09:49:14.857Z,14.31
2023-05-17T09:51:43.920Z,14.03
2023-05-17T09:54:11.833Z,14.01
2023-05-17T09:56:39.115Z,14.23
2023-05-17T09:59:16.264Z,14.15
2023-05-17T10:01:45.867Z,13.95
2023-05-17T10:04:13.885Z,13.87
2023-05-17T10:09:14.911Z,14.15
2023-05-17T10:11:47.001Z,14.28
2023-05-17T10:14:22.577Z,14.92
2023-05-17T10:16:51.630Z,14.58
2023-05-17T10:19:20.972Z,14.74
2023-05-17T10:21:54.925Z,14.86
2023-05-17T10:24:23.282Z,14.67
2023-05-17T10:26:51.277Z,14.59
2023-05-17T10:29:21.119Z,14.78
2023-05-17T10:31:52.873Z,14.47
2023-05-17T10:34:20.744Z,14.47
2023-05-17T10:36:49.981Z,14.42
2023-05-17T10:39:17.022Z,14.61
2023-05-17T10:41:48.549Z,15.02
2023-05-17T10:44:17.479Z,14.75
2023-05-17T10:46:59.506Z,14.72
2023-05-17T10:49:30.204Z,14.85
2023-05-17T10:52:18.892Z,15.14
2023-05-17T10:54:53.519Z,15.44
2023-05-17T10:57:39.098Z,15.27
2023-05-17T11:00:21.696Z,15.31
2023-05-17T11:02:49.172Z,15.09
2023-05-17T11:05:27.204Z,15.35
2023-05-17T11:08:15.785Z,15.21
2023-05-17T11:11:18.133Z,14.84
2023-05-17T11:14:04.261Z,14.84
2023-05-17T11:16:38.300Z,14.96
2023-05-17T11:19:11.899Z,15.12
2023-05-17T11:21:48.746Z,14.75
2023-05-17T11:24:27.268Z,14.98
2023-05-17T11:26:55.561Z,14.77
2023-05-17T11:29:30.788Z,14.99
2023-05-17T11:31:57.427Z,15.37
2023-05-17T11:34:25.528Z,15.23
2023-05-17T11:36:54.632Z,15.32
2023-05-17T11:39:23.901Z,15.79
2023-05-17T11:41:56.088Z,15.29
2023-05-17T11:44:31.463Z,15.12
2023-05-17T11:47:06.985Z,14.96
2023-05-17T11:49:37.833Z,15.15
2023-05-17T11:52:08.566Z,15.55
2023-05-17T11:54:40.250Z,15.73
2023-05-17T11:57:07.168Z,15.70
2023-05-17T11:59:39.713Z,15.92
2023-05-17T12:02:06.490Z,15.54
2023-05-17T12:04:39.133Z,15.78
2023-05-17T12:07:10.464Z,15.60
2023-05-17T12:09:40.263Z,15.72
2023-05-17T12:12:07.657Z,15.79
2023-05-17T12:14:34.629Z,16.15
2023-05-17T12:17:05.687Z,15.98
2023-05-17T12:19:33.010Z,15.64
2023-05-17T12:22:14.617Z,16.08
2023-05-17T12:24:42.919Z,15.83
2023-05-17T12:27:10.095Z,15.66
2023-05-17T12:29:36.747Z,15.66
2023-05-17T12:32:05.864Z,15.66
2023-05-17T12:34:32.704Z,15.71
2023-05-17T12:36:59.439Z,15.83
2023-05-17T12:39:26.416Z,15.83
2023-05-17T12:41:54.321Z,15.77
2023-05-17T12:44:21.181Z,15.68
2023-05-17T12:46:53.548Z,15.75
2023-05-17T12:49:23.485Z,15.93
2023-05-17T12:51:50.221Z,16.22
2023-05-17T12:54:28.631Z,16.29
2023-05-17T12:56:56.519Z,16.40
2023-05-17T12:59:25.871Z,15.86
2023-05-17T13:01:56.652Z,15.84
2023-05-17T13:04:34.545Z,16.01
2023-05-17T13:07:04.527Z,15.99
2023-05-17T13:09:33.610Z,16.05
2023-05-17T13:12:05.232Z,16.13
2023-05-17T13:14:55.012Z,16.21
2023-05-17T13:17:36.785Z,16.20
2023-05-17T13:20:05.987Z,16.03
2023-05-17T13:22:33.833Z,16.18
2023-05-17T13:25:00.386Z,16.07
2023-05-17T13:27:28.213Z,16.72
2023-05-17T13:29:54.723Z,15.87
2023-05-17T13:32:21.528Z,15.71
2023-05-17T13:34:48.054Z,15.96
2023-05-17T13:37:14.655Z,16.31
2023-05-17T13:39:42.052Z,16.37
2023-05-17T13:42:10.504Z,16.42
2023-05-17T13:44:38.433Z,16.54
2023-05-17T13:47:05.885Z,16.51
2023-05-17T13:49:32.590Z,16.53
2023-05-17T13:52:00.530Z,16.61
2023-05-17T13:54:27.089Z,16.47
2023-05-17T13:56:55.365Z,16.30
2023-05-17T13:59:21.864Z,16.74
2023-05-17T14:01:48.349Z,16.35
2023-05-17T14:04:14.913Z,16.35
2023-05-17T14:06:42.205Z,16.03
2023-05-17T14:09:10.368Z,16.04
2023-05-17T14:11:36.930Z,15.79
2023-05-17T14:14:04.223Z,15.90
2023-05-17T14:16:31.127Z,16.28
2023-05-17T14:18:57.739Z,16.41
2023-05-17T14:21:24.369Z,16.59
2023-05-17T14:23:50.927Z,16.24
2023-05-17T14:26:17.569Z,16.01
2023-05-17T14:28:44.068Z,15.95
2023-05-17T14:31:10.768Z,15.89
2023-05-17T14:33:37.476Z,15.73
2023-05-17T14:36:04.614Z,15.74
2023-05-17T14:38:31.369Z,15.87
2023-05-17T14:41:00.616Z,15.80
2023-05-17T14:43:28.764Z,15.93
2023-05-17T14:45:55.330Z,15.97
2023-05-17T14:48:22.333Z,15.97
2023-05-17T14:50:49.154Z,16.41
2023-05-17T14:53:16.399Z,16.23
2023-05-17T14:55:43.344Z,16.38
2023-05-17T14:58:12.931Z,16.16
2023-05-17T15:00:41.581Z,15.88
2023-05-17T15:03:09.100Z,15.86
2023-05-17T15:05:36.066Z,15.77
2023-05-17T15:08:02.606Z,15.77
2023-05-17T15:10:29.891Z,15.60
2023-05-17T15:12:56.511Z,15.59
2023-05-17T15:15:23.204Z,15.61
2023-05-17T15:17:49.789Z,15.94
2023-05-17T15:20:18.239Z,15.98
2023-05-17T15:22:44.826Z,16.23
2023-05-17T15:25:11.457Z,16.14
2023-05-17T15:27:38.024Z,16.33
2023-05-17T15:30:05.380Z,15.72
2023-05-17T15:32:34.248Z,16.66
2023-05-17T15:35:00.868Z,15.83
2023-05-17T15:37:27.666Z,15.64
2023-05-17T15:39:54.165Z,16.53
2023-05-17T15:42:20.643Z,16.39
2023-05-17T15:44:47.164Z,16.16
2023-05-17T15:47:13.788Z,15.86
2023-05-17T15:49:41.247Z,15.76
2023-05-17T15:52:07.817Z,15.61
2023-05-17T15:54:34.316Z,15.67
2023-05-17T15:57:01.030Z,15.67
2023-05-17T15:59:27.591Z,15.68
2023-05-17T16:01:54.197Z,15.25
2023-05-17T16:04:20.777Z,15.06
2023-05-17T16:06:47.359Z,15.03
2023-05-17T16:09:14.369Z,15.17
2023-05-17T16:11:40.873Z,15.34
2023-05-17T16:14:07.411Z,15.15
2023-05-17T16:16:33.956Z,15.06
2023-05-17T16:19:01.092Z,14.84
2023-05-17T16:21:27.658Z,15.04
2023-05-17T16:23:54.207Z,15.39
2023-05-17T16:26:21.138Z,15.51
2023-05-17T16:28:48.108Z,15.39
2023-05-17T16:31:14.719Z,15.27
2023-05-17T16:33:42.380Z,15.03
2023-05-17T16:36:09.002Z,15.10
2023-05-17T16:38:35.831Z,15.42
2023-05-17T16:41:03.286Z,15.26
2023-05-17T16:43:31.121Z,15.28
2023-05-17T16:45:57.757Z,15.22
2023-05-17T16:48:24.496Z,15.61
2023-05-17T16:50:51.547Z,15.48
2023-05-17T16:53:18.728Z,15.12
2023-05-17T16:55:45.629Z,15.03
2023-05-17T16:58:12.188Z,14.77
2023-05-17T17:00:38.933Z,14.85
2023-05-17T17:03:09.000Z,14.90
2023-05-17T17:05:36.421Z,15.00
2023-05-17T17:08:03.067Z,14.82
2023-05-17T17:10:30.051Z,14.94
2023-05-17T17:12:57.155Z,15.15
2023-05-17T17:15:23.882Z,14.86
2023-05-17T17:17:50.751Z,15.11
2023-05-17T17:20:17.956Z,14.70
2023-05-17T17:22:44.617Z,14.37
2023-05-17T17:25:11.259Z,14.25
2023-05-17T17:27:37.806Z,14.15
2023-05-17T17:30:05.464Z,14.33
2023-05-17T17:32:32.380Z,14.34
2023-05-17T17:34:59.039Z,14.35
2023-05-17T17:37:25.638Z,14.29
2023-05-17T17:39:52.269Z,14.34
2023-05-17T17:42:19.392Z,14.37
2023-05-17T17:44:46.017Z,14.61
2023-05-17T17:47:12.823Z,15.02
2023-05-17T17:49:39.493Z,14.73
2023-05-17T17:52:06.277Z,14.63
2023-05-17T17:54:32.846Z,14.71
2023-05-17T17:56:59.399Z,14.81
2023-05-17T17:59:25.929Z,14.73
2023-05-17T18:01:52.716Z,14.71
2023-05-17T18:04:19.462Z,14.67
2023-05-17T18:06:46.131Z,14.74
2023-05-17T18:09:12.779Z,14.95
2023-05-17T18:11:39.313Z,15.30
2023-05-17T18:14:07.045Z,14.85
2023-05-17T18:16:34.084Z,14.64
2023-05-17T18:19:01.004Z,14.25
2023-05-17T18:21:29.336Z,13.97
2023-05-17T18:23:55.969Z,13.86
2023-05-17T18:26:23.259Z,13.92
2023-05-17T18:28:50.924Z,13.86
2023-05-17T18:31:18.373Z,13.77
2023-05-17T18:33:45.346Z,13.66
2023-05-17T18:36:12.068Z,13.42
2023-05-17T18:38:38.727Z,13.57
2023-05-17T18:41:05.294Z,13.29
2023-05-17T18:43:31.894Z,13.16
2023-05-17T18:45:58.472Z,12.99
2023-05-17T18:48:25.222Z,12.97
2023-05-17T18:50:51.800Z,12.87
2023-05-17T18:53:18.358Z,12.80
2023-05-17T18:55:45.017Z,12.65
2023-05-17T18:58:11.549Z,12.55
2023-05-17T19:00:38.262Z,12.41
2023-05-17T19:03:04.929Z,12.43
2023-05-17T19:05:31.588Z,12.28
2023-05-17T19:07:58.149Z,12.19
2023-05-17T19:10:24.753Z,12.07
2023-05-17T19:12:51.292Z,12.04
2023-05-17T19:15:18.010Z,12.02
2023-05-17T19:17:45.237Z,11.89
2023-05-17T19:20:12.337Z,11.83
2023-05-17T19:22:38.869Z,11.79
2023-05-17T19:25:06.530Z,11.61
2023-05-17T19:27:33.057Z,11.58
2023-05-17T19:29:59.542Z,11.55
2023-05-17T19:32:26.880Z,11.56
2023-05-17T19:34:54.707Z,11.50
2023-05-17T19:37:21.406Z,11.33
2023-05-17T19:39:47.977Z,11.13
2023-05-17T19:42:14.530Z,10.84
2023-05-17T19:44:41.092Z,10.60
2023-05-17T19:47:07.675Z,10.52
2023-05-17T19:49:34.269Z,10.54
2023-05-17T19:52:01.197Z,10.53
2023-05-17T19:54:29.523Z,10.43
2023-05-17T19:56:57.177Z,10.31
2023-05-17T19:59:23.703Z,10.23
2023-05-17T20:01:50.884Z,10.03
2023-05-17T20:04:20.468Z,9.83
2023-05-17T20:06:47.113Z,9.79
2023-05-17T20:09:13.659Z,9.65
2023-05-17T20:11:40.297Z,9.59
2023-05-17T20:14:06.972Z,9.51
2023-05-17T20:16:33.565Z,9.41
2023-05-17T20:19:00.952Z,9.46
2023-05-17T20:21:27.992Z,9.49
2023-05-17T20:24:01.125Z,9.32
2023-05-17T20:26:31.934Z,9.18
2023-05-17T20:28:59.117Z,9.07
2023-05-17T20:31:29.030Z,9.08
2023-05-17T20:33:55.614Z,8.97
2023-05-17T20:36:22.197Z,8.85
2023-05-17T20:38:48.859Z,8.92
2023-05-17T20:41:15.944Z,8.83
2023-05-17T20:43:47.029Z,8.55
2023-05-17T20:46:14.005Z,8.49
2023-05-17T20:48:42.956Z,8.45
2023-05-17T20:51:10.699Z,8.34
2023-05-17T20:53:37.792Z,8.24
2023-05-17T20:56:06.291Z,8.20
2023-05-17T20:58:33.645Z,8.21
2023-05-17T21:01:01.122Z,8.18
2023-05-17T21:03:33.105Z,8.15
2023-05-17T21:06:02.005Z,8.13
2023-05-17T21:08:28.688Z,8.00
2023-05-17T21:10:56.075Z,8.00
2023-05-17T21:13:25.349Z,7.97
2023-05-17T21:15:55.869Z,7.85
2023-05-17T21:18:25.838Z,7.67
2023-05-17T21:20:53.248Z,7.60
2023-05-17T21:23:20.161Z,7.60
2023-05-17T21:25:47.359Z,7.59
2023-05-17T21:28:14.058Z,7.51
2023-05-17T21:30:40.633Z,7.57
2023-05-17T21:33:07.291Z,7.58
2023-05-17T21:35:33.927Z,7.69
2023-05-17T21:38:00.525Z,7.63
2023-05-17T21:40:27.126Z,7.65
2023-05-17T21:42:53.650Z,7.51
2023-05-17T21:45:20.331Z,7.45
2023-05-17T21:47:47.077Z,7.35
2023-05-17T21:50:13.814Z,7.32
2023-05-17T21:52:40.536Z,7.19
2023-05-17T21:55:08.628Z,7.15
2023-05-17T21:57:36.545Z,7.33
2023-05-17T22:00:07.755Z,7.39
2023-05-17T22:02:35.819Z,7.41
2023-05-17T22:05:02.706Z,7.35
2023-05-17T22:07:29.309Z,7.38
2023-05-17T22:09:58.852Z,7.24
2023-05-17T22:12:26.192Z,7.13
2023-05-17T22:14:55.698Z,6.99
2023-05-17T22:17:39.320Z,6.87
2023-05-17T22:20:14.267Z,6.80
2023-05-17T22:22:40.826Z,6.84
2023-05-17T22:25:08.378Z,6.83
2023-05-17T22:27:35.070Z,6.69
2023-05-17T22:30:01.649Z,6.72
2023-05-17T22:32:28.197Z,6.70
2023-05-17T22:34:56.163Z,6.63
2023-05-17T22:37:23.568Z,6.59
2023-05-17T22:39:50.370Z,6.57
2023-05-17T22:42:16.971Z,6.48
2023-05-17T22:44:43.471Z,6.27
2023-05-17T22:47:14.572Z,6.28
2023-05-17T22:49:41.688Z,6.29
2023-05-17T22:52:22.928Z,6.16
2023-05-17T22:54:49.477Z,6.16
2023-05-17T22:57:16.111Z,6.21
2023-05-17T22:59:43.952Z,6.30
2023-05-17T23:02:12.113Z,6.28
2023-05-17T23:04:40.004Z,6.21
2023-05-17T23:07:10.117Z,6.07
2023-05-17T23:09:40.395Z,5.98
2023-05-17T23:12:08.778Z,5.93
2023-05-17T23:14:36.535Z,5.93
2023-05-17T23:17:12.128Z,5.77
2023-05-17T23:19:40.403Z,5.67
2023-05-17T23:22:10.673Z,5.52
2023-05-17T23:25:02.258Z,5.50
2023-05-17T23:27:33.159Z,5.50
2023-05-17T23:30:00.945Z,5.47
2023-05-17T23:32:32.245Z,5.43
2023-05-17T23:35:03.264Z,5.34
2023-05-17T23:37:32.046Z,5.37
2023-05-17T23:39:59.412Z,5.39
2023-05-17T23:42:32.222Z,5.35
2023-05-17T23:45:00.451Z,5.25
2023-05-17T23:47:33.794Z,5.33
2023-05-17T23:50:00.992Z,5.30
2023-05-17T23:52:29.915Z,5.38
2023-05-17T23:54:57.725Z,5.23
2023-05-17T23:57:24.753Z,5.23
2023-05-17T23:59:51.283Z,5.23
